sensor_id;sensor_type;location;lat;lon;timestamp;pressure;altitude;pressure_sealevel;temperature;humidity
52927;BME280;40783;49.710;8.842;2023-12-14T00:00:24;97990.94;;;6.52;100.00
52927;BME280;40783;49.710;8.842;2023-12-14T00:02:49;97987.47;;;6.51;100.00
52927;BME280;40783;49.710;8.842;2023-12-14T00:05:14;97985.81;;;6.50;100.00
52927;BME280;40783;49.710;8.842;2023-12-14T00:07:39;97996.44;;;6.50;100.00
52927;BME280;40783;49.710;8.842;2023-12-14T00:10:04;97991.94;;;6.51;100.00
52927;BME280;40783;49.710;8.842;2023-12-14T00:12:30;97990.28;;;6.50;100.00
52927;BME280;40783;49.710;8.842;2023-12-14T00:14:56;97997.41;;;6.49;100.00
52927;BME280;40783;49.710;8.842;2023-12-14T00:17:21;98001.88;;;6.49;100.00
52927;BME280;40783;49.710;8.842;2023-12-14T00:19:49;98000.22;;;6.48;100.00
52927;BME280;40783;49.710;8.842;2023-12-14T00:22:14;98011.84;;;6.47;100.00
52927;BME280;40783;49.710;8.842;2023-12-14T00:24:39;98010.19;;;6.46;100.00
52927;BME280;40783;49.710;8.842;2023-12-14T00:27:04;98013.16;;;6.43;100.00
52927;BME280;40783;49.710;8.842;2023-12-14T00:29:32;98017.47;;;6.44;100.00
52927;BME280;40783;49.710;8.842;2023-12-14T00:31:57;98018.47;;;6.43;100.00
52927;BME280;40783;49.710;8.842;2023-12-14T00:34:25;98017.09;;;6.38;100.00
52927;BME280;40783;49.710;8.842;2023-12-14T00:36:50;98020.44;;;6.41;100.00
52927;BME280;40783;49.710;8.842;2023-12-14T00:39:15;98019.44;;;6.42;100.00
52927;BME280;40783;49.710;8.842;2023-12-14T00:41:40;98016.28;;;6.38;100.00
52927;BME280;40783;49.710;8.842;2023-12-14T00:44:06;98020.13;;;6.35;100.00
52927;BME280;40783;49.710;8.842;2023-12-14T00:46:31;98033.22;;;6.37;100.00
52927;BME280;40783;49.710;8.842;2023-12-14T00:48:56;98035.19;;;6.35;100.00
52927;BME280;40783;49.710;8.842;2023-12-14T00:51:21;98041.66;;;6.32;100.00
52927;BME280;40783;49.710;8.842;2023-12-14T00:53:46;98046.97;;;6.32;100.00
52927;BME280;40783;49.710;8.842;2023-12-14T00:56:12;98051.44;;;6.32;100.00
52927;BME280;40783;49.710;8.842;2023-12-14T00:58:39;98058.72;;;6.30;100.00
52927;BME280;40783;49.710;8.842;2023-12-14T01:01:05;98059.28;;;6.33;100.00
52927;BME280;40783;49.710;8.842;2023-12-14T01:03:32;98065.41;;;6.34;100.00
52927;BME280;40783;49.710;8.842;2023-12-14T01:05:58;98073.88;;;6.37;100.00
52927;BME280;40783;49.710;8.842;2023-12-14T01:08:25;98076.53;;;6.37;100.00
52927;BME280;40783;49.710;8.842;2023-12-14T01:10:50;98083.50;;;6.38;100.00
52927;BME280;40783;49.710;8.842;2023-12-14T01:13:16;98089.16;;;6.35;100.00
52927;BME280;40783;49.710;8.842;2023-12-14T01:15:41;98094.78;;;6.32;100.00
52927;BME280;40783;49.710;8.842;2023-12-14T01:18:06;98103.41;;;6.34;100.00
52927;BME280;40783;49.710;8.842;2023-12-14T01:20:31;98109.72;;;6.33;100.00
52927;BME280;40783;49.710;8.842;2023-12-14T01:22:56;98117.69;;;6.33;100.00
52927;BME280;40783;49.710;8.842;2023-12-14T01:25:24;98117.34;;;6.36;100.00
52927;BME280;40783;49.710;8.842;2023-12-14T01:27:49;98125.69;;;6.42;100.00
52927;BME280;40783;49.710;8.842;2023-12-14T01:30:14;98133.50;;;6.43;100.00
52927;BME280;40783;49.710;8.842;2023-12-14T01:32:44;98129.00;;;6.44;100.00
52927;BME280;40783;49.710;8.842;2023-12-14T01:35:09;98128.69;;;6.47;100.00
52927;BME280;40783;49.710;8.842;2023-12-14T01:37:37;98137.28;;;6.41;100.00
52927;BME280;40783;49.710;8.842;2023-12-14T01:40:02;98139.63;;;6.44;100.00
52927;BME280;40783;49.710;8.842;2023-12-14T01:42:31;98132.66;;;6.43;100.00
52927;BME280;40783;49.710;8.842;2023-12-14T01:44:58;98142.28;;;6.44;100.00
52927;BME280;40783;49.710;8.842;2023-12-14T01:47:26;98144.25;;;6.42;100.00
52927;BME280;40783;49.710;8.842;2023-12-14T01:49:51;98153.09;;;6.42;100.00
52927;BME280;40783;49.710;8.842;2023-12-14T01:52:16;98153.22;;;6.41;100.00
52927;BME280;40783;49.710;8.842;2023-12-14T01:54:41;98162.84;;;6.42;100.00
52927;BME280;40783;49.710;8.842;2023-12-14T01:57:09;98165.81;;;6.38;100.00
52927;BME280;40783;49.710;8.842;2023-12-14T01:59:34;98175.44;;;6.39;100.00
52927;BME280;40783;49.710;8.842;2023-12-14T02:01:59;98170.44;;;6.36;100.00
52927;BME280;40783;49.710;8.842;2023-12-14T02:04:26;98176.09;;;6.33;100.00
52927;BME280;40783;49.710;8.842;2023-12-14T02:06:51;98183.91;;;6.35;100.00
52927;BME280;40783;49.710;8.842;2023-12-14T02:09:16;98176.72;;;6.27;100.00
52927;BME280;40783;49.710;8.842;2023-12-14T02:11:42;98194.31;;;6.28;100.00
52927;BME280;40783;49.710;8.842;2023-12-14T02:14:09;98183.69;;;6.28;100.00
52927;BME280;40783;49.710;8.842;2023-12-14T02:16:35;98186.72;;;6.33;100.00
52927;BME280;40783;49.710;8.842;2023-12-14T02:19:03;98185.75;;;6.34;100.00
52927;BME280;40783;49.710;8.842;2023-12-14T02:21:31;98192.03;;;6.33;100.00
52927;BME280;40783;49.710;8.842;2023-12-14T02:23:56;98195.38;;;6.35;100.00
52927;BME280;40783;49.710;8.842;2023-12-14T02:26:21;98191.56;;;6.38;100.00
52927;BME280;40783;49.710;8.842;2023-12-14T02:28:49;98195.19;;;6.37;100.00
52927;BME280;40783;49.710;8.842;2023-12-14T02:31:14;98193.69;;;6.34;100.00
52927;BME280;40783;49.710;8.842;2023-12-14T02:33:39;98200.00;;;6.33;100.00
52927;BME280;40783;49.710;8.842;2023-12-14T02:36:04;98198.16;;;6.34;100.00
52927;BME280;40783;49.710;8.842;2023-12-14T02:38:32;98209.63;;;6.34;100.00
52927;BME280;40783;49.710;8.842;2023-12-14T02:40:58;98213.28;;;6.33;100.00
52927;BME280;40783;49.710;8.842;2023-12-14T02:43:27;98218.59;;;6.33;100.00
52927;BME280;40783;49.710;8.842;2023-12-14T02:45:55;98218.25;;;6.36;100.00
52927;BME280;40783;49.710;8.842;2023-12-14T02:48:26;98228.06;;;6.36;100.00
52927;BME280;40783;49.710;8.842;2023-12-14T02:50:51;98219.50;;;6.24;100.00
52927;BME280;40783;49.710;8.842;2023-12-14T02:53:16;98218.91;;;6.30;100.00
52927;BME280;40783;49.710;8.842;2023-12-14T02:55:41;98224.22;;;6.30;100.00
52927;BME280;40783;49.710;8.842;2023-12-14T02:58:07;98229.53;;;6.30;100.00
52927;BME280;40783;49.710;8.842;2023-12-14T03:00:32;98232.84;;;6.32;100.00
52927;BME280;40783;49.710;8.842;2023-12-14T03:02:57;98238.16;;;6.32;100.00
52927;BME280;40783;49.710;8.842;2023-12-14T03:05:22;98246.06;;;6.24;100.00
52927;BME280;40783;49.710;8.842;2023-12-14T03:07:47;98242.56;;;6.23;100.00
52927;BME280;40783;49.710;8.842;2023-12-14T03:10:13;98242.72;;;6.22;100.00
52927;BME280;40783;49.710;8.842;2023-12-14T03:12:38;98244.38;;;6.23;100.00
52927;BME280;40783;49.710;8.842;2023-12-14T03:15:03;98248.72;;;6.24;100.00
52927;BME280;40783;49.710;8.842;2023-12-14T03:17:31;98255.38;;;6.28;100.00
52927;BME280;40783;49.710;8.842;2023-12-14T03:19:56;98262.81;;;6.24;100.00
52927;BME280;40783;49.710;8.842;2023-12-14T03:22:22;98261.00;;;6.25;100.00
52927;BME280;40783;49.710;8.842;2023-12-14T03:24:49;98274.28;;;6.25;100.00
52927;BME280;40783;49.710;8.842;2023-12-14T03:27:14;98269.78;;;6.26;100.00
52927;BME280;40783;49.710;8.842;2023-12-14T03:29:39;98272.59;;;6.24;100.00
52927;BME280;40783;49.710;8.842;2023-12-14T03:32:05;98273.59;;;6.23;100.00
52927;BME280;40783;49.710;8.842;2023-12-14T03:34:30;98279.59;;;6.25;100.00
52927;BME280;40783;49.710;8.842;2023-12-14T03:36:57;98277.63;;;6.27;100.00
52927;BME280;40783;49.710;8.842;2023-12-14T03:39:25;98286.56;;;6.26;100.00
52927;BME280;40783;49.710;8.842;2023-12-14T03:41:50;98293.53;;;6.27;100.00
52927;BME280;40783;49.710;8.842;2023-12-14T03:44:18;98300.66;;;6.27;100.00
52927;BME280;40783;49.710;8.842;2023-12-14T03:46:43;98300.81;;;6.25;100.00
52927;BME280;40783;49.710;8.842;2023-12-14T03:49:13;98306.81;;;6.27;100.00
52927;BME280;40783;49.710;8.842;2023-12-14T03:51:40;98315.09;;;6.24;100.00
52927;BME280;40783;49.710;8.842;2023-12-14T03:54:06;98323.75;;;6.26;100.00
52927;BME280;40783;49.710;8.842;2023-12-14T03:56:31;98317.75;;;6.24;100.00
52927;BME280;40783;49.710;8.842;2023-12-14T03:59:01;98327.38;;;6.25;100.00
52927;BME280;40783;49.710;8.842;2023-12-14T04:01:26;98327.38;;;6.25;100.00
52927;BME280;40783;49.710;8.842;2023-12-14T04:03:51;98329.34;;;6.23;100.00
52927;BME280;40783;49.710;8.842;2023-12-14T04:06:16;98336.31;;;6.24;100.00
52927;BME280;40783;49.710;8.842;2023-12-14T04:08:42;98333.69;;;6.24;100.00
52927;BME280;40783;49.710;8.842;2023-12-14T04:11:07;98336.31;;;6.24;100.00
52927;BME280;40783;49.710;8.842;2023-12-14T04:13:33;98336.31;;;6.24;100.00
52927;BME280;40783;49.710;8.842;2023-12-14T04:15:58;98339.97;;;6.23;100.00
52927;BME280;40783;49.710;8.842;2023-12-14T04:18:23;98346.66;;;6.27;100.00
52927;BME280;40783;49.710;8.842;2023-12-14T04:20:54;98348.31;;;6.28;100.00
52927;BME280;40783;49.710;8.842;2023-12-14T04:23:19;98348.31;;;6.28;100.00
52927;BME280;40783;49.710;8.842;2023-12-14T04:25:44;98353.94;;;6.25;100.00
52927;BME280;40783;49.710;8.842;2023-12-14T04:28:12;98346.66;;;6.27;100.00
52927;BME280;40783;49.710;8.842;2023-12-14T04:30:37;98355.59;;;6.26;100.00
52927;BME280;40783;49.710;8.842;2023-12-14T04:33:02;98356.41;;;6.27;100.00
52927;BME280;40783;49.710;8.842;2023-12-14T04:35:32;98363.69;;;6.24;100.00
52927;BME280;40783;49.710;8.842;2023-12-14T04:38:01;98361.81;;;6.17;100.00
52927;BME280;40783;49.710;8.842;2023-12-14T04:40:26;98373.78;;;6.21;100.00
52927;BME280;40783;49.710;8.842;2023-12-14T04:42:51;98366.81;;;6.20;100.00
52927;BME280;40783;49.710;8.842;2023-12-14T04:45:17;98377.44;;;6.20;100.00
52927;BME280;40783;49.710;8.842;2023-12-14T04:47:44;98384.13;;;6.24;100.00
52927;BME280;40783;49.710;8.842;2023-12-14T04:50:09;98380.47;;;6.25;100.00
52927;BME280;40783;49.710;8.842;2023-12-14T04:52:34;98384.13;;;6.24;100.00
52927;BME280;40783;49.710;8.842;2023-12-14T04:54:59;98388.44;;;6.25;100.00
52927;BME280;40783;49.710;8.842;2023-12-14T04:57:24;98392.78;;;6.26;100.00
52927;BME280;40783;49.710;8.842;2023-12-14T04:59:52;98401.44;;;6.28;100.00
52927;BME280;40783;49.710;8.842;2023-12-14T05:02:17;98410.91;;;6.31;100.00
52927;BME280;40783;49.710;8.842;2023-12-14T05:04:42;98409.22;;;6.30;100.00
52927;BME280;40783;49.710;8.842;2023-12-14T05:07:07;98410.38;;;6.27;100.00
52927;BME280;40783;49.710;8.842;2023-12-14T05:09:37;98426.00;;;6.30;100.00
52927;BME280;40783;49.710;8.842;2023-12-14T05:12:02;98422.66;;;6.28;100.00
52927;BME280;40783;49.710;8.842;2023-12-14T05:14:30;98426.91;;;6.21;100.00
52927;BME280;40783;49.710;8.842;2023-12-14T05:16:58;98431.91;;;6.24;100.00
52927;BME280;40783;49.710;8.842;2023-12-14T05:19:25;98430.25;;;6.23;100.00
52927;BME280;40783;49.710;8.842;2023-12-14T05:21:50;98438.91;;;6.25;100.00
52927;BME280;40783;49.710;8.842;2023-12-14T05:24:19;98445.19;;;6.24;100.00
52927;BME280;40783;49.710;8.842;2023-12-14T05:26:44;98428.28;;;6.25;100.00
52927;BME280;40783;49.710;8.842;2023-12-14T05:29:09;98445.47;;;6.21;100.00
52927;BME280;40783;49.710;8.842;2023-12-14T05:31:35;98450.78;;;6.21;100.00
52927;BME280;40783;49.710;8.842;2023-12-14T05:34:00;98458.75;;;6.21;100.00
52927;BME280;40783;49.710;8.842;2023-12-14T05:36:25;98458.06;;;6.19;100.00
52927;BME280;40783;49.710;8.842;2023-12-14T05:38:53;98464.34;;;6.18;100.00
52927;BME280;40783;49.710;8.842;2023-12-14T05:41:20;98470.19;;;6.21;100.00
52927;BME280;40783;49.710;8.842;2023-12-14T05:43:46;98467.72;;;6.20;100.00
52927;BME280;40783;49.710;8.842;2023-12-14T05:46:19;98480.00;;;6.21;100.00
52927;BME280;40783;49.710;8.842;2023-12-14T05:48:45;98469.50;;;6.19;100.00
52927;BME280;40783;49.710;8.842;2023-12-14T05:51:10;98483.63;;;6.20;100.00
52927;BME280;40783;49.710;8.842;2023-12-14T05:53:35;98493.22;;;6.31;100.00
52927;BME280;40783;49.710;8.842;2023-12-14T05:56:07;98494.19;;;6.30;100.00
52927;BME280;40783;49.710;8.842;2023-12-14T05:58:35;98507.94;;;6.25;100.00
52927;BME280;40783;49.710;8.842;2023-12-14T06:01:00;98515.91;;;6.25;100.00
52927;BME280;40783;49.710;8.842;2023-12-14T06:03:27;98518.25;;;6.28;100.00
52927;BME280;40783;49.710;8.842;2023-12-14T06:05:53;98513.53;;;6.22;100.00
52927;BME280;40783;49.710;8.842;2023-12-14T06:08:20;98506.25;;;6.24;100.00
52927;BME280;40783;49.710;8.842;2023-12-14T06:10:45;98520.50;;;6.23;100.00
52927;BME280;40783;49.710;8.842;2023-12-14T06:13:10;98533.09;;;6.21;100.00
52927;BME280;40783;49.710;8.842;2023-12-14T06:15:36;98549.84;;;6.21;100.00
52927;BME280;40783;49.710;8.842;2023-12-14T06:18:03;98550.13;;;6.18;100.00
52927;BME280;40783;49.710;8.842;2023-12-14T06:20:30;98549.03;;;6.21;100.00
52927;BME280;40783;49.710;8.842;2023-12-14T06:22:55;98563.00;;;6.23;100.00
52927;BME280;40783;49.710;8.842;2023-12-14T06:25:20;98559.66;;;6.21;100.00
52927;BME280;40783;49.710;8.842;2023-12-14T06:27:45;98557.56;;;6.15;100.00
52927;BME280;40783;49.710;8.842;2023-12-14T06:30:13;98556.03;;;6.12;100.00
52927;BME280;40783;49.710;8.842;2023-12-14T06:32:38;98564.69;;;6.14;100.00
52927;BME280;40783;49.710;8.842;2023-12-14T06:35:04;98563.56;;;6.17;100.00
52927;BME280;40783;49.710;8.842;2023-12-14T06:37:32;98576.16;;;6.15;100.00
52927;BME280;40783;49.710;8.842;2023-12-14T06:39:57;98572.81;;;6.13;100.00
52927;BME280;40783;49.710;8.842;2023-12-14T06:42:22;98581.50;;;6.05;100.00
52927;BME280;40783;49.710;8.842;2023-12-14T06:44:48;98589.31;;;6.06;100.00
52927;BME280;40783;49.710;8.842;2023-12-14T06:47:13;98592.66;;;6.08;100.00
52927;BME280;40783;49.710;8.842;2023-12-14T06:49:40;98587.34;;;6.08;100.00
52927;BME280;40783;49.710;8.842;2023-12-14T06:52:06;98592.66;;;6.08;100.00
52927;BME280;40783;49.710;8.842;2023-12-14T06:54:31;98592.38;;;6.12;100.00
52927;BME280;40783;49.710;8.842;2023-12-14T06:56:57;98590.69;;;6.11;100.00
52927;BME280;40783;49.710;8.842;2023-12-14T06:59:22;98595.03;;;6.12;100.00
52927;BME280;40783;49.710;8.842;2023-12-14T07:01:47;98609.28;;;6.11;100.00
52927;BME280;40783;49.710;8.842;2023-12-14T07:04:15;98610.25;;;6.09;100.00
52927;BME280;40783;49.710;8.842;2023-12-14T07:06:40;98613.88;;;6.08;100.00
52927;BME280;40783;49.710;8.842;2023-12-14T07:09:05;98621.72;;;6.00;100.00
52927;BME280;40783;49.710;8.842;2023-12-14T07:11:30;98637.66;;;6.00;100.00
52927;BME280;40783;49.710;8.842;2023-12-14T07:14:00;98637.66;;;6.00;100.00
52927;BME280;40783;49.710;8.842;2023-12-14T07:16:27;98638.34;;;6.02;100.00
52927;BME280;40783;49.710;8.842;2023-12-14T07:18:52;98641.97;;;6.01;100.00
52927;BME280;40783;49.710;8.842;2023-12-14T07:21:18;98645.50;;;6.02;100.00
52927;BME280;40783;49.710;8.842;2023-12-14T07:23:43;98648.25;;;6.00;100.00
52927;BME280;40783;49.710;8.842;2023-12-14T07:26:08;98656.34;;;5.99;100.00
52927;BME280;40783;49.710;8.842;2023-12-14T07:28:34;98670.88;;;5.94;100.00
52927;BME280;40783;49.710;8.842;2023-12-14T07:30:59;98675.34;;;5.94;100.00
52927;BME280;40783;49.710;8.842;2023-12-14T07:33:24;98672.25;;;5.89;100.00
52927;BME280;40783;49.710;8.842;2023-12-14T07:35:54;98670.31;;;5.91;100.00
52927;BME280;40783;49.710;8.842;2023-12-14T07:38:21;98679.66;;;5.95;100.00
52927;BME280;40783;49.710;8.842;2023-12-14T07:40:47;98680.13;;;6.00;100.00
52927;BME280;40783;49.710;8.842;2023-12-14T07:43:12;98677.88;;;6.05;100.00
52927;BME280;40783;49.710;8.842;2023-12-14T07:45:37;98679.28;;;6.09;100.00
52927;BME280;40783;49.710;8.842;2023-12-14T07:48:02;98686.25;;;6.11;100.00
52927;BME280;40783;49.710;8.842;2023-12-14T07:50:29;98695.19;;;6.09;100.00
52927;BME280;40783;49.710;8.842;2023-12-14T07:52:54;98705.53;;;6.13;100.00
52927;BME280;40783;49.710;8.842;2023-12-14T07:55:19;98702.19;;;6.11;100.00
52927;BME280;40783;49.710;8.842;2023-12-14T07:57:45;98702.63;;;6.06;100.00
52927;BME280;40783;49.710;8.842;2023-12-14T08:00:10;98713.09;;;6.07;100.00
52927;BME280;40783;49.710;8.842;2023-12-14T08:02:36;98709.47;;;6.08;100.00
52927;BME280;40783;49.710;8.842;2023-12-14T08:05:01;98720.06;;;6.08;100.00
52927;BME280;40783;49.710;8.842;2023-12-14T08:07:26;98726.91;;;6.11;100.00
52927;BME280;40783;49.710;8.842;2023-12-14T08:09:54;98722.28;;;6.13;100.00
52927;BME280;40783;49.710;8.842;2023-12-14T08:12:22;98722.44;;;6.12;100.00
52927;BME280;40783;49.710;8.842;2023-12-14T08:14:47;98722.88;;;6.17;100.00
52927;BME280;40783;49.710;8.842;2023-12-14T08:17:15;98729.84;;;6.18;100.00
52927;BME280;40783;49.710;8.842;2023-12-14T08:19:41;98733.78;;;6.14;100.00
52927;BME280;40783;49.710;8.842;2023-12-14T08:22:06;98748.00;;;6.22;100.00
52927;BME280;40783;49.710;8.842;2023-12-14T08:24:32;98749.41;;;6.17;100.00
52927;BME280;40783;49.710;8.842;2023-12-14T08:27:00;98752.78;;;6.19;100.00
52927;BME280;40783;49.710;8.842;2023-12-14T08:29:28;98755.97;;;6.22;100.00
52927;BME280;40783;49.710;8.842;2023-12-14T08:31:53;98772.31;;;6.28;100.00
52927;BME280;40783;49.710;8.842;2023-12-14T08:34:24;98779.59;;;6.26;100.00
52927;BME280;40783;49.710;8.842;2023-12-14T08:36:51;98787.56;;;6.26;100.00
52927;BME280;40783;49.710;8.842;2023-12-14T08:39:19;98789.81;;;6.30;100.00
52927;BME280;40783;49.710;8.842;2023-12-14T08:41:46;98795.81;;;6.32;100.00
52927;BME280;40783;49.710;8.842;2023-12-14T08:44:14;98797.63;;;6.32;100.00
52927;BME280;40783;49.710;8.842;2023-12-14T08:46:40;98811.19;;;6.38;100.00
52927;BME280;40783;49.710;8.842;2023-12-14T08:49:06;98812.84;;;6.39;100.00
52927;BME280;40783;49.710;8.842;2023-12-14T08:51:31;98822.09;;;6.35;100.00
52927;BME280;40783;49.710;8.842;2023-12-14T08:53:58;98825.03;;;6.32;100.00
52927;BME280;40783;49.710;8.842;2023-12-14T08:56:24;98827.41;;;6.35;100.00
52927;BME280;40783;49.710;8.842;2023-12-14T08:58:49;98832.16;;;6.32;100.00
52927;BME280;40783;49.710;8.842;2023-12-14T09:01:21;98833.00;;;6.32;100.00
52927;BME280;40783;49.710;8.842;2023-12-14T09:03:46;98838.59;;;6.29;100.00
52927;BME280;40783;49.710;8.842;2023-12-14T09:06:11;98845.59;;;6.30;100.00
52927;BME280;40783;49.710;8.842;2023-12-14T09:08:37;98851.44;;;6.34;100.00
52927;BME280;40783;49.710;8.842;2023-12-14T09:11:02;98851.59;;;6.32;100.00
52927;BME280;40783;49.710;8.842;2023-12-14T09:13:29;98861.78;;;6.37;100.00
52927;BME280;40783;49.710;8.842;2023-12-14T09:15:54;98864.03;;;6.42;100.00
52927;BME280;40783;49.710;8.842;2023-12-14T09:18:22;98877.19;;;6.43;100.00
52927;BME280;40783;49.710;8.842;2023-12-14T09:20:48;98872.41;;;6.47;100.00
52927;BME280;40783;49.710;8.842;2023-12-14T09:23:14;98876.31;;;6.43;100.00
52927;BME280;40783;49.710;8.842;2023-12-14T09:25:40;98880.38;;;6.47;100.00
52927;BME280;40783;49.710;8.842;2023-12-14T09:28:05;98882.50;;;6.53;100.00
52927;BME280;40783;49.710;8.842;2023-12-14T09:30:30;98889.22;;;6.57;100.00
52927;BME280;40783;49.710;8.842;2023-12-14T09:32:55;98896.19;;;6.58;100.00
52927;BME280;40783;49.710;8.842;2023-12-14T09:35:23;98898.16;;;6.66;100.00
52927;BME280;40783;49.710;8.842;2023-12-14T09:37:48;98902.38;;;6.68;100.00
52927;BME280;40783;49.710;8.842;2023-12-14T09:40:14;98911.75;;;6.73;100.00
52927;BME280;40783;49.710;8.842;2023-12-14T09:42:41;98916.06;;;6.74;100.00
52927;BME280;40783;49.710;8.842;2023-12-14T09:45:11;98925.44;;;6.78;100.00
52927;BME280;40783;49.710;8.842;2023-12-14T09:47:37;98924.19;;;6.82;100.00
52927;BME280;40783;49.710;8.842;2023-12-14T09:50:02;98927.56;;;6.84;100.00
52927;BME280;40783;49.710;8.842;2023-12-14T09:52:28;98932.59;;;6.87;100.00
52927;BME280;40783;49.710;8.842;2023-12-14T09:54:53;98939.28;;;6.81;100.00
52927;BME280;40783;49.710;8.842;2023-12-14T09:57:21;98934.81;;;6.82;100.00
52927;BME280;40783;49.710;8.842;2023-12-14T09:59:53;98948.13;;;6.82;100.00
52927;BME280;40783;49.710;8.842;2023-12-14T10:02:19;98947.41;;;6.80;100.00
52927;BME280;40783;49.710;8.842;2023-12-14T10:04:45;98950.78;;;6.82;100.00
52927;BME280;40783;49.710;8.842;2023-12-14T10:07:10;98956.09;;;6.82;100.00
52927;BME280;40783;49.710;8.842;2023-12-14T10:09:36;98956.63;;;6.76;100.00
52927;BME280;40783;49.710;8.842;2023-12-14T10:12:03;98955.22;;;6.81;100.00
52927;BME280;40783;49.710;8.842;2023-12-14T10:14:31;98963.78;;;6.85;100.00
52927;BME280;40783;49.710;8.842;2023-12-14T10:16:56;98967.81;;;6.89;100.00
52927;BME280;40783;49.710;8.842;2023-12-14T10:19:21;98964.50;;;6.87;100.00
52927;BME280;40783;49.710;8.842;2023-12-14T10:21:49;98960.84;;;6.88;100.00
52927;BME280;40783;49.710;8.842;2023-12-14T10:24:15;98957.88;;;6.91;100.00
52927;BME280;40783;49.710;8.842;2023-12-14T10:26:40;98970.34;;;7.01;100.00
52927;BME280;40783;49.710;8.842;2023-12-14T10:29:08;98967.25;;;6.95;100.00
52927;BME280;40783;49.710;8.842;2023-12-14T10:31:34;98970.63;;;6.97;100.00
52927;BME280;40783;49.710;8.842;2023-12-14T10:34:05;98966.28;;;6.96;100.00
52927;BME280;40783;49.710;8.842;2023-12-14T10:36:33;98974.53;;;6.93;100.00
52927;BME280;40783;49.710;8.842;2023-12-14T10:39:00;98968.41;;;6.93;100.00
52927;BME280;40783;49.710;8.842;2023-12-14T10:41:25;98976.66;;;6.90;100.00
52927;BME280;40783;49.710;8.842;2023-12-14T10:43:53;98983.78;;;6.89;100.00
52927;BME280;40783;49.710;8.842;2023-12-14T10:46:20;98984.34;;;6.83;100.00
52927;BME280;40783;49.710;8.842;2023-12-14T10:48:47;98984.19;;;6.94;100.00
52927;BME280;40783;49.710;8.842;2023-12-14T10:51:12;98988.81;;;6.92;100.00
52927;BME280;40783;49.710;8.842;2023-12-14T10:53:37;98996.94;;;6.91;100.00
52927;BME280;40783;49.710;8.842;2023-12-14T10:56:07;99000.31;;;6.93;100.00
52927;BME280;40783;49.710;8.842;2023-12-14T10:58:48;99007.84;;;6.88;100.00
52927;BME280;40783;49.710;8.842;2023-12-14T11:01:14;99006.72;;;6.90;100.00
52927;BME280;40783;49.710;8.842;2023-12-14T11:03:40;99018.06;;;6.92;100.00
52927;BME280;40783;49.710;8.842;2023-12-14T11:06:20;99018.22;;;7.01;100.00
52927;BME280;40783;49.710;8.842;2023-12-14T11:08:46;99013.16;;;6.97;100.00
52927;BME280;40783;49.710;8.842;2023-12-14T11:11:11;99010.97;;;7.12;100.00
52927;BME280;40783;49.710;8.842;2023-12-14T11:13:38;99007.03;;;7.07;100.00
52927;BME280;40783;49.710;8.842;2023-12-14T11:16:04;99016.53;;;7.00;100.00
52927;BME280;40783;49.710;8.842;2023-12-14T11:18:32;99019.88;;;6.92;100.00
52927;BME280;40783;49.710;8.842;2023-12-14T11:20:58;99025.47;;;6.89;100.00
52927;BME280;40783;49.710;8.842;2023-12-14T11:25:50;99036.81;;;7.01;100.00
52927;BME280;40783;49.710;8.842;2023-12-14T11:28:16;99030.63;;;6.90;100.00
52927;BME280;40783;49.710;8.842;2023-12-14T11:30:43;99028.28;;;6.87;100.00
52927;BME280;40783;49.710;8.842;2023-12-14T11:33:08;99047.28;;;6.92;100.00
52927;BME280;40783;49.710;8.842;2023-12-14T11:35:33;99049.25;;;6.90;100.00
52927;BME280;40783;49.710;8.842;2023-12-14T11:37:58;99053.03;;;6.97;100.00
52927;BME280;40783;49.710;8.842;2023-12-14T11:40:27;99047.59;;;6.99;100.00
52927;BME280;40783;49.710;8.842;2023-12-14T11:42:59;99057.09;;;7.02;100.00
52927;BME280;40783;49.710;8.842;2023-12-14T11:45:24;99051.78;;;7.02;100.00
52927;BME280;40783;49.710;8.842;2023-12-14T11:47:50;99067.47;;;7.05;100.00
52927;BME280;40783;49.710;8.842;2023-12-14T11:50:16;99069.97;;;6.96;100.00
52927;BME280;40783;49.710;8.842;2023-12-14T11:52:41;99073.06;;;7.02;100.00
52927;BME280;40783;49.710;8.842;2023-12-14T11:55:07;99079.19;;;6.92;100.00
52927;BME280;40783;49.710;8.842;2023-12-14T11:57:32;99077.41;;;7.03;100.00
52927;BME280;40783;49.710;8.842;2023-12-14T11:59:58;99080.09;;;7.12;100.00
52927;BME280;40783;49.710;8.842;2023-12-14T12:02:26;99077.00;;;7.17;100.00
52927;BME280;40783;49.710;8.842;2023-12-14T12:04:52;99076.59;;;7.12;100.00
52927;BME280;40783;49.710;8.842;2023-12-14T12:07:17;99081.47;;;7.07;100.00
52927;BME280;40783;49.710;8.842;2023-12-14T12:09:43;99075.56;;;6.93;100.00
52927;BME280;40783;49.710;8.842;2023-12-14T12:12:09;99078.38;;;7.02;100.00
52927;BME280;40783;49.710;8.842;2023-12-14T12:14:35;99083.25;;;6.96;100.00
52927;BME280;40783;49.710;8.842;2023-12-14T12:17:00;99077.56;;;7.01;100.00
52927;BME280;40783;49.710;8.842;2023-12-14T12:19:26;99083.97;;;6.98;100.00
52927;BME280;40783;49.710;8.842;2023-12-14T12:21:51;99096.28;;;7.00;100.00
52927;BME280;40783;49.710;8.842;2023-12-14T12:24:16;99104.69;;;7.05;100.00
52927;BME280;40783;49.710;8.842;2023-12-14T12:26:41;99095.75;;;7.16;100.00
52927;BME280;40783;49.710;8.842;2023-12-14T12:29:06;99096.31;;;7.09;100.00
52927;BME280;40783;49.710;8.842;2023-12-14T12:31:32;99106.97;;;7.09;100.00
52927;BME280;40783;49.710;8.842;2023-12-14T12:33:58;99097.44;;;7.07;100.00
52927;BME280;40783;49.710;8.842;2023-12-14T12:36:23;99105.41;;;7.07;100.00
52927;BME280;40783;49.710;8.842;2023-12-14T12:38:48;99100.25;;;7.15;100.00
52927;BME280;40783;49.710;8.842;2023-12-14T12:41:16;99107.53;;;7.13;100.00
52927;BME280;40783;49.710;8.842;2023-12-14T12:43:41;99104.16;;;7.11;100.00
52927;BME280;40783;49.710;8.842;2023-12-14T12:46:06;99108.66;;;7.20;100.00
52927;BME280;40783;49.710;8.842;2023-12-14T12:48:34;99114.53;;;7.14;100.00
52927;BME280;40783;49.710;8.842;2023-12-14T12:51:00;99117.88;;;7.16;100.00
52927;BME280;40783;49.710;8.842;2023-12-14T12:53:25;99114.25;;;7.07;100.00
52927;BME280;40783;49.710;8.842;2023-12-14T12:55:51;99129.34;;;7.07;100.00